Time;durP1;ratioP1;P1;durP2;ratioP2;P2;SDS_P1;SDS_P2;PMS_P1;PMS_P2;Temp;Humidity;BMP_temperature;BMP_pressure;BME280_temperature;BME280_humidity;BME280_pressure;Samples;Min_cycle;Max_cycle;Signal;HPM_P1;HPM_P2
2020/12/15 00:01:24;;;;;;;16.80;8.15;;;;;;;-0.97;58.27;99393.22;10500143;28;20051;-53
2020/12/15 00:06:33;;;;;;;24.75;6.60;;;;;;;-0.89;58.22;99392.03;10505298;28;20363;-52
2020/12/15 00:11:35;;;;;;;19.25;8.43;;;;;;;-0.84;58.24;99375.47;10505724;28;20055;-53
2020/12/15 00:16:37;;;;;;;24.00;10.35;;;;;;;-0.80;58.07;99374.44;10507562;28;20048;-52
2020/12/15 00:21:42;;;;;;;23.77;8.82;;;;;;;-0.78;58.08;99377.78;10508708;28;20516;-55
2020/12/15 00:26:45;;;;;;;15.95;5.05;;;;;;;-0.75;57.93;99385.38;10506636;28;20098;-51
2020/12/15 00:31:47;;;;;;;20.60;8.60;;;;;;;-0.76;57.80;99378.56;10504451;28;20146;-53
2020/12/15 00:36:49;;;;;;;26.15;9.38;;;;;;;-0.74;58.08;99369.00;10504109;28;20052;-51
2020/12/15 00:41:50;;;;;;;23.08;9.27;;;;;;;-0.77;57.98;99355.38;10503635;28;20400;-51
2020/12/15 00:46:53;;;;;;;28.23;11.15;;;;;;;-0.76;58.14;99357.91;10487232;28;20381;-52
2020/12/15 00:51:55;;;;;;;24.73;9.77;;;;;;;-0.78;57.85;99353.72;10462133;28;20041;-51
2020/12/15 00:56:57;;;;;;;18.50;7.72;;;;;;;-0.78;58.31;99345.97;10461178;28;20083;-50
2020/12/15 01:02:01;;;;;;;19.13;6.93;;;;;;;-0.84;58.51;99343.66;10501928;28;20056;-53
2020/12/15 01:07:05;;;;;;;20.45;7.85;;;;;;;-0.87;58.32;99336.88;10502606;28;20121;-52
2020/12/15 01:12:09;;;;;;;14.40;5.72;;;;;;;-0.87;58.50;99338.63;10503793;28;20076;-52
2020/12/15 01:17:11;;;;;;;13.95;4.00;;;;;;;-0.82;58.82;99347.00;10504892;28;20047;-52
2020/12/15 01:22:14;;;;;;;11.27;4.53;;;;;;;-0.79;58.77;99357.19;10502634;28;20048;-52
2020/12/15 01:27:16;;;;;;;16.40;5.88;;;;;;;-0.79;58.92;99357.19;10501900;28;20290;-52
2020/12/15 01:32:34;;;;;;;17.10;5.53;;;;;;;-0.80;58.90;99340.03;10501188;28;20044;-52
2020/12/15 01:37:36;;;;;;;20.70;6.22;;;;;;;-0.78;59.17;99348.53;10500357;28;20044;-53
2020/12/15 01:42:39;;;;;;;23.98;7.68;;;;;;;-0.76;59.20;99333.84;10501857;28;20071;-52
2020/12/15 01:47:43;;;;;;;19.67;8.95;;;;;;;-0.71;58.59;99334.44;10505770;28;20087;-52
2020/12/15 01:52:45;;;;;;;21.48;8.23;;;;;;;-0.65;58.73;99334.19;10462311;28;20056;-53
2020/12/15 01:57:47;;;;;;;27.05;8.98;;;;;;;-0.59;58.66;99309.84;10466739;28;20403;-52
2020/12/15 02:03:02;;;;;;;20.85;9.35;;;;;;;-0.66;58.73;99326.50;10502101;28;20166;-51
2020/12/15 02:08:24;;;;;;;19.15;8.77;;;;;;;-0.63;58.74;99329.78;10501381;28;20063;-52
2020/12/15 02:13:27;;;;;;;26.77;9.67;;;;;;;-0.53;58.91;99322.47;10499415;28;20052;-52
2020/12/15 02:18:34;;;;;;;19.33;7.60;;;;;;;-0.40;58.36;99317.56;10499542;28;20189;-51
2020/12/15 02:23:40;;;;;;;21.33;6.85;;;;;;;-0.33;58.49;99319.81;10498553;28;20582;-52
2020/12/15 02:29:02;;;;;;;20.52;6.78;;;;;;;-0.29;58.10;99320.50;10495170;28;20064;-53
2020/12/15 02:34:05;;;;;;;20.05;6.97;;;;;;;-0.29;58.33;99310.16;10498885;28;20055;-52
2020/12/15 02:39:09;;;;;;;22.20;7.68;;;;;;;-0.19;58.44;99313.97;10499169;28;20052;-53
2020/12/15 02:44:13;;;;;;;22.83;9.65;;;;;;;-0.08;58.11;99313.47;10500024;28;20052;-52
2020/12/15 02:49:23;;;;;;;22.00;8.68;;;;;;;-0.09;58.05;99309.22;10499620;28;20052;-53
2020/12/15 02:54:26;;;;;;;19.92;8.23;;;;;;;-0.07;58.02;99295.31;10500565;28;20451;-51
2020/12/15 02:59:27;;;;;;;17.83;7.13;;;;;;;-0.09;57.82;99297.16;10499535;28;20052;-55
2020/12/15 03:04:29;;;;;;;25.05;9.63;;;;;;;-0.10;57.79;99295.44;10466076;28;20055;-52
2020/12/15 03:09:33;;;;;;;19.33;7.05;;;;;;;-0.10;57.94;99295.44;10456414;28;20079;-50
2020/12/15 03:14:37;;;;;;;19.60;7.97;;;;;;;-0.14;57.52;99293.94;10456146;28;20127;-52
2020/12/15 03:19:43;;;;;;;17.70;7.15;;;;;;;-0.11;58.05;99286.03;10455282;28;20041;-51
2020/12/15 03:24:46;;;;;;;18.08;7.47;;;;;;;-0.11;58.20;99291.22;10497803;28;20087;-55
2020/12/15 03:29:50;;;;;;;22.38;8.55;;;;;;;-0.09;57.68;99298.91;10499276;28;20040;-51
2020/12/15 03:34:52;;;;;;;20.00;7.88;;;;;;;0.04;57.51;99296.56;10496420;28;20052;-51
2020/12/15 03:39:55;;;;;;;17.58;7.15;;;;;;;0.11;57.34;99295.34;10499708;28;20562;-53
2020/12/15 03:45:17;;;;;;;20.02;8.32;;;;;;;0.09;57.80;99290.22;10498865;28;20540;-52
2020/12/15 03:50:19;;;;;;;19.75;8.55;;;;;;;0.07;57.49;99296.41;10496000;28;20048;-51
2020/12/15 03:55:22;;;;;;;20.30;6.93;;;;;;;-0.03;57.54;99291.69;10496681;28;20060;-52
2020/12/15 04:00:31;;;;;;;21.58;8.48;;;;;;;-0.08;57.83;99290.22;10495887;28;20392;-52
2020/12/15 04:05:42;;;;;;;19.60;7.82;;;;;;;-0.08;58.09;99287.63;10496462;28;20102;-51
2020/12/15 04:10:48;;;;;;;19.58;6.60;;;;;;;-0.06;57.57;99286.66;10495935;28;20063;-52
2020/12/15 04:15:51;;;;;;;23.23;9.05;;;;;;;-0.06;57.73;99291.00;10495114;28;20145;-51
2020/12/15 04:20:58;;;;;;;19.27;8.20;;;;;;;-0.03;57.75;99291.69;10497085;28;20094;-52
2020/12/15 04:26:01;;;;;;;19.63;7.82;;;;;;;0.06;57.59;99299.88;10499512;28;20182;-51
2020/12/15 04:31:12;;;;;;;21.40;7.45;;;;;;;0.06;57.86;99299.88;10455009;28;20045;-51
2020/12/15 04:36:14;;;;;;;18.98;7.90;;;;;;;0.03;57.53;99290.53;10453784;28;20392;-51
2020/12/15 04:41:18;;;;;;;22.45;7.90;;;;;;;0.04;57.98;99291.38;10453398;28;20148;-51
2020/12/15 04:46:22;;;;;;;;;;;;;;;0.12;57.90;99289.25;10455193;28;20057;-52
2020/12/15 04:51:35;;;;;;;20.30;8.15;;;;;;;0.19;57.28;99296.63;10461320;28;19937;-52
2020/12/15 04:56:44;;;;;;;22.52;7.95;;;;;;;0.25;57.58;99299.81;10460900;28;20063;-51
2020/12/15 05:02:06;;;;;;;20.25;7.88;;;;;;;0.29;57.04;99297.00;10496170;28;20105;-52
2020/12/15 05:07:12;;;;;;;20.58;9.05;;;;;;;0.29;57.32;99297.00;10495676;28;20079;-52
2020/12/15 05:12:47;;;;;;;;;;;;;;;0.36;57.05;99303.53;10497782;28;20195;-53
2020/12/15 05:17:49;;;;;;;20.85;8.93;;;;;;;0.43;57.05;99310.09;10493160;28;20330;-52
2020/12/15 05:22:59;;;;;;;25.77;10.10;;;;;;;0.52;57.12;99313.13;10498692;28;20056;-51
2020/12/15 05:28:12;;;;;;;22.73;9.93;;;;;;;0.52;57.14;99320.88;10498513;28;20087;-51
2020/12/15 05:33:15;;;;;;;25.15;9.30;;;;;;;0.43;56.97;99322.19;10497822;28;20090;-52
2020/12/15 05:38:37;;;;;;;19.48;8.63;;;;;;;0.40;56.94;99320.59;10497670;28;20088;-52
2020/12/15 05:43:52;;;;;;;20.85;7.70;;;;;;;0.40;57.03;99325.78;10497524;28;20373;-52
2020/12/15 05:49:01;;;;;;;20.48;8.10;;;;;;;0.43;57.41;99319.59;10497349;28;20060;-51
2020/12/15 05:54:07;;;;;;;22.67;7.22;;;;;;;0.42;56.88;99329.09;10499737;28;20542;-52
2020/12/15 05:59:19;;;;;;;33.35;12.07;;;;;;;0.36;57.13;99329.41;10498920;28;20132;-52
2020/12/15 06:04:22;;;;;;;22.88;8.98;;;;;;;0.35;57.21;99332.91;10485128;28;20078;-51
2020/12/15 06:09:26;;;;;;;22.38;9.00;;;;;;;0.37;57.38;99333.69;10476958;28;20503;-51
2020/12/15 06:14:28;;;;;;;;;;;;;;;0.38;57.47;99337.94;10501082;28;20056;-52
2020/12/15 06:19:31;;;;;;;17.00;8.23;;;;;;;0.45;57.08;99339.28;10489849;28;19935;-60
2020/12/15 06:24:38;;;;;;;24.27;9.93;;;;;;;0.47;57.51;99338.41;10497822;28;20136;-51
2020/12/15 06:29:44;;;;;;;23.83;8.93;;;;;;;0.49;57.40;99336.56;10457200;28;20049;-51
2020/12/15 06:34:47;;;;;;;21.52;8.20;;;;;;;0.44;57.39;99340.22;10456265;28;20473;-52
2020/12/15 06:39:54;;;;;;;23.00;9.52;;;;;;;0.50;57.28;99338.25;10459716;28;20060;-52
2020/12/15 06:45:04;;;;;;;20.33;7.95;;;;;;;0.57;56.97;99342.19;10459282;28;20428;-53
2020/12/15 06:50:11;;;;;;;20.83;8.63;;;;;;;0.53;57.05;99346.69;10460211;28;20545;-51
2020/12/15 06:55:13;;;;;;;21.95;9.32;;;;;;;0.48;56.96;99347.81;10460303;28;20065;-51
2020/12/15 07:00:15;;;;;;;21.30;8.77;;;;;;;0.52;57.58;99349.34;10459984;28;20049;-54
2020/12/15 07:05:22;;;;;;;24.95;10.40;;;;;;;0.60;57.25;99348.03;10460505;28;20079;-50
2020/12/15 07:10:27;;;;;;;18.38;9.18;;;;;;;0.43;56.96;99340.28;10459644;28;20041;-52
2020/12/15 07:15:31;;;;;;;23.77;10.30;;;;;;;0.42;57.24;99342.03;10459516;28;20394;-50
2020/12/15 07:20:32;;;;;;;18.98;9.15;;;;;;;0.50;56.76;99343.41;10459093;28;20079;-51
2020/12/15 07:25:34;;;;;;;26.30;9.05;;;;;;;0.56;57.25;99346.53;10462983;28;20049;-52
2020/12/15 07:30:38;;;;;;;27.63;9.38;;;;;;;0.58;56.95;99349.88;10458998;28;20045;-52
2020/12/15 07:35:40;;;;;;;18.25;8.50;;;;;;;0.59;57.29;99355.91;10458016;28;20045;-51
2020/12/15 07:40:42;;;;;;;23.83;9.73;;;;;;;0.65;56.59;99356.44;10458057;28;20044;-50
2020/12/15 07:45:48;;;;;;;27.17;11.02;;;;;;;0.75;56.66;99351.63;10458774;28;20121;-51
2020/12/15 07:50:50;;;;;;;20.48;10.07;;;;;;;0.87;56.21;99347.56;10460966;28;20112;-50
2020/12/15 07:56:03;;;;;;;24.00;10.15;;;;;;;0.88;56.57;99350.06;10458527;28;20056;-52
2020/12/15 08:01:05;;;;;;;24.08;9.82;;;;;;;0.91;56.98;99354.25;10458811;28;20041;-51
2020/12/15 08:06:08;;;;;;;20.35;8.43;;;;;;;0.95;56.45;99358.34;10458215;28;20508;-53
2020/12/15 08:11:15;;;;;;;21.70;10.55;;;;;;;0.95;56.50;99353.19;10460398;28;20045;-51
2020/12/15 08:16:18;;;;;;;25.10;10.13;;;;;;;0.99;56.74;99349.53;10457895;28;20053;-51
2020/12/15 08:21:22;;;;;;;21.70;9.80;;;;;;;0.99;56.41;99353.88;10459792;28;20051;-51
2020/12/15 08:26:24;;;;;;;21.85;9.15;;;;;;;1.09;56.64;99349.91;10466017;28;20063;-52
2020/12/15 08:31:27;;;;;;;30.52;10.70;;;;;;;1.11;56.26;99348.06;10465213;28;20068;-50
2020/12/15 08:36:29;;;;;;;38.35;13.00;;;;;;;1.17;56.30;99358.09;10464639;28;20155;-52
2020/12/15 08:41:32;;;;;;;36.67;11.63;;;;;;;1.19;56.16;99352.84;10464462;28;20106;-51
2020/12/15 08:46:35;;;;;;;24.03;9.87;;;;;;;1.06;56.30;99350.88;10464381;28;20481;-52
2020/12/15 08:51:40;;;;;;;23.63;10.93;;;;;;;1.15;56.38;99359.94;10464117;28;20067;-51
2020/12/15 08:56:43;;;;;;;25.02;9.40;;;;;;;1.15;56.52;99355.59;10464172;28;20061;-51
2020/12/15 09:01:46;;;;;;;14.98;7.13;;;;;;;1.03;56.44;99363.97;10463803;28;20060;-50
2020/12/15 09:06:48;;;;;;;23.60;9.43;;;;;;;0.94;56.31;99367.03;10463326;28;20430;-50
2020/12/15 09:11:54;;;;;;;25.85;9.00;;;;;;;0.84;56.67;99369.28;10463504;28;20049;-52
2020/12/15 09:16:57;;;;;;;25.15;9.32;;;;;;;0.85;56.53;99368.34;10464452;28;20045;-51
2020/12/15 09:22:00;;;;;;;23.75;10.55;;;;;;;1.00;56.44;99363.31;10463105;28;20044;-52
2020/12/15 09:27:02;;;;;;;25.13;10.38;;;;;;;1.19;56.08;99358.84;10462606;28;20453;-51
2020/12/15 09:32:04;;;;;;;22.23;10.65;;;;;;;1.29;56.08;99359.19;10462341;28;20069;-52
2020/12/15 09:37:06;;;;;;;23.17;11.20;;;;;;;1.39;55.57;99357.81;10463806;28;20057;-50
2020/12/15 09:42:08;;;;;;;33.08;12.15;;;;;;;1.42;55.36;99359.38;10462042;28;20393;-52
2020/12/15 09:47:10;;;;;;;26.95;10.57;;;;;;;1.35;55.59;99356.28;10462847;28;20053;-51
2020/12/15 09:52:12;;;;;;;26.05;12.10;;;;;;;1.29;55.56;99354.88;10462361;28;20040;-52
2020/12/15 09:57:13;;;;;;;27.05;11.90;;;;;;;1.46;55.54;99358.31;10462107;28;20056;-52
2020/12/15 10:02:16;;;;;;;27.65;11.43;;;;;;;1.56;55.11;99356.91;10462308;28;20064;-51
2020/12/15 10:07:20;;;;;;;26.65;11.20;;;;;;;1.71;55.47;99353.47;10463348;28;20363;-51
2020/12/15 10:12:21;;;;;;;24.17;10.63;;;;;;;1.72;55.33;99362.91;10461777;28;20057;-51
2020/12/15 10:17:24;;;;;;;27.20;12.60;;;;;;;1.75;55.20;99360.16;10461358;28;20135;-53
2020/12/15 10:22:26;;;;;;;25.40;11.77;;;;;;;1.83;54.75;99362.34;10461481;28;20064;-50
2020/12/15 10:27:28;;;;;;;28.80;11.70;;;;;;;1.93;54.85;99360.09;10460205;28;20071;-53
2020/12/15 10:32:31;;;;;;;29.98;13.13;;;;;;;2.00;54.98;99362.28;10461177;28;20041;-52
2020/12/15 10:37:32;;;;;;;28.10;12.18;;;;;;;2.05;54.53;99368.00;10460179;28;20091;-50
2020/12/15 10:42:36;;;;;;;27.95;13.38;;;;;;;2.03;54.67;99369.00;10460417;28;20128;-50
2020/12/15 10:47:38;;;;;;;32.05;13.95;;;;;;;2.12;54.42;99362.50;10460027;28;20048;-51
2020/12/15 10:52:40;;;;;;;29.98;12.93;;;;;;;2.22;54.37;99374.03;10459518;28;20049;-52
2020/12/15 10:57:41;;;;;;;39.10;15.18;;;;;;;2.22;54.29;99369.69;10459855;28;20072;-52
2020/12/15 11:02:44;;;;;;;34.95;13.10;;;;;;;2.27;54.18;99362.47;10460337;28;20477;-52
2020/12/15 11:07:45;;;;;;;26.17;13.25;;;;;;;2.34;54.27;99368.16;10459480;28;20045;-50
2020/12/15 11:12:47;;;;;;;31.38;14.15;;;;;;;2.36;54.26;99370.66;10458898;28;20049;-51
2020/12/15 11:17:50;;;;;;;28.65;11.65;;;;;;;2.39;54.14;99378.25;10460513;28;20060;-53
2020/12/15 11:22:51;;;;;;;30.40;13.00;;;;;;;2.41;54.13;99392.00;10459126;28;20110;-50
2020/12/15 11:27:53;;;;;;;33.60;13.20;;;;;;;2.39;53.77;99393.81;10458275;28;20182;-52
2020/12/15 11:32:56;;;;;;;29.42;13.32;;;;;;;2.40;54.23;99398.94;10458404;28;20048;-58
2020/12/15 11:37:58;;;;;;;36.05;13.10;;;;;;;2.39;54.16;99396.41;10458571;28;20049;-51
2020/12/15 11:43:00;;;;;;;34.90;13.15;;;;;;;2.45;53.66;99407.28;10457974;28;20045;-51
2020/12/15 11:48:02;;;;;;;32.33;12.98;;;;;;;2.36;53.74;99410.41;10458227;28;20053;-50
2020/12/15 11:53:04;;;;;;;27.63;10.75;;;;;;;2.38;53.82;99405.13;10459196;28;20059;-55
2020/12/15 11:58:06;;;;;;;31.20;14.05;;;;;;;2.42;53.92;99409.22;10462820;28;20110;-52
2020/12/15 12:03:08;;;;;;;33.90;12.93;;;;;;;2.44;53.41;99404.78;10466704;28;20496;-51
2020/12/15 12:08:10;;;;;;;35.22;13.88;;;;;;;2.38;54.07;99411.16;10467610;28;20049;-53
2020/12/15 12:13:12;;;;;;;30.52;13.55;;;;;;;2.28;53.63;99416.03;10467186;28;20051;-58
2020/12/15 12:18:14;;;;;;;38.33;13.02;;;;;;;2.25;53.68;99413.59;10466148;28;20065;-51
2020/12/15 12:23:16;;;;;;;36.10;13.93;;;;;;;2.36;53.28;99425.13;10466636;28;20127;-51
2020/12/15 12:28:17;;;;;;;28.95;14.77;;;;;;;2.33;53.44;99433.09;10466365;28;20386;-52
2020/12/15 12:33:20;;;;;;;29.75;14.05;;;;;;;2.13;53.66;99416.88;10465362;28;20048;-51
2020/12/15 12:38:23;;;;;;;32.03;14.32;;;;;;;2.19;53.50;99418.28;10465053;28;20083;-53
2020/12/15 12:43:24;;;;;;;35.30;15.10;;;;;;;2.21;53.28;99427.63;10466134;28;20063;-51
2020/12/15 12:48:27;;;;;;;32.67;13.75;;;;;;;2.32;53.10;99426.22;10465127;28;20118;-51
2020/12/15 12:53:28;;;;;;;33.30;14.15;;;;;;;2.34;53.57;99430.41;10463268;28;20063;-51
2020/12/15 12:58:30;;;;;;;34.03;13.60;;;;;;;2.36;53.22;99430.31;10464409;28;20060;-51
2020/12/15 13:03:33;;;;;;;32.13;12.93;;;;;;;2.10;53.81;99439.53;10463958;28;20045;-51
2020/12/15 13:08:35;;;;;;;33.63;15.67;;;;;;;2.10;54.07;99444.72;10463590;28;20059;-53
2020/12/15 13:13:36;;;;;;;36.00;13.65;;;;;;;2.17;53.07;99449.47;10463679;28;20790;-51
2020/12/15 13:18:39;;;;;;;33.78;15.27;;;;;;;2.21;53.23;99456.16;10465159;28;20071;-52
2020/12/15 13:23:41;;;;;;;34.15;15.50;;;;;;;2.23;53.39;99448.31;10463388;28;20454;-51
2020/12/15 13:28:43;;;;;;;35.53;13.85;;;;;;;2.18;53.25;99455.50;10463312;28;20478;-51
2020/12/15 13:33:45;;;;;;;28.88;13.18;;;;;;;2.16;53.17;99457.38;10462674;28;20049;-52
2020/12/15 13:38:47;;;;;;;34.65;14.20;;;;;;;2.14;53.67;99449.66;10464991;28;20048;-50
2020/12/15 13:43:49;;;;;;;41.22;15.52;;;;;;;2.18;52.97;99456.34;10462275;28;20138;-55
2020/12/15 13:48:51;;;;;;;31.98;13.60;;;;;;;2.21;53.33;99457.94;10462629;28;20133;-51
2020/12/15 13:53:53;;;;;;;37.95;15.85;;;;;;;2.16;52.56;99471.16;10462351;28;20049;-51
2020/12/15 13:58:55;;;;;;;49.58;15.48;;;;;;;2.10;53.60;99474.09;10462095;28;20095;-50
2020/12/15 14:03:57;;;;;;;41.88;14.75;;;;;;;2.13;53.19;99473.91;10461814;28;20390;-53
2020/12/15 14:08:59;;;;;;;42.85;15.75;;;;;;;2.12;53.37;99467.03;10461672;28;20067;-51
2020/12/15 14:14:00;;;;;;;31.73;14.90;;;;;;;2.20;52.81;99470.06;10461545;28;20041;-58
2020/12/15 14:19:20;;;;;;;33.70;14.80;;;;;;;2.26;52.73;99469.72;10459875;28;20099;-52
2020/12/15 14:24:24;;;;;;;32.72;15.43;;;;;;;2.30;52.62;99484.19;10461044;28;20127;-51
2020/12/15 14:29:26;;;;;;;34.63;16.17;;;;;;;2.26;53.06;99482.69;10461484;28;20057;-52
2020/12/15 14:34:28;;;;;;;41.10;16.15;;;;;;;2.20;52.95;99480.44;10461305;28;20385;-51
2020/12/15 14:39:30;;;;;;;35.22;15.90;;;;;;;2.24;52.99;99471.56;10460861;28;20064;-53
2020/12/15 14:44:32;;;;;;;31.90;14.13;;;;;;;2.24;53.39;99471.56;10460439;28;20055;-51
2020/12/15 14:49:35;;;;;;;32.15;14.70;;;;;;;2.21;53.37;99456.16;10459333;28;20061;-51
2020/12/15 14:54:36;;;;;;;33.53;14.90;;;;;;;2.20;53.06;99459.69;10459432;28;20105;-51
2020/12/15 14:59:38;;;;;;;35.10;14.68;;;;;;;2.17;53.24;99465.03;10460829;28;20112;-52
2020/12/15 15:04:40;;;;;;;32.92;13.88;;;;;;;2.01;53.04;99479.75;10459180;28;20064;-52
2020/12/15 15:09:42;;;;;;;37.80;15.60;;;;;;;1.97;53.47;99475.66;10459095;28;20053;-51
2020/12/15 15:14:44;;;;;;;31.35;15.82;;;;;;;1.90;53.67;99485.50;10458498;28;20131;-51
2020/12/15 15:19:46;;;;;;;39.80;17.60;;;;;;;1.92;53.26;99488.03;10458758;28;20381;-51
2020/12/15 15:24:48;;;;;;;35.30;14.80;;;;;;;1.90;53.29;99482.09;10459124;28;20135;-51
2020/12/15 15:29:50;;;;;;;46.95;15.85;;;;;;;1.94;53.17;99481.00;10476489;28;20041;-54
2020/12/15 15:34:52;;;;;;;41.65;17.63;;;;;;;1.86;53.61;99475.41;10472952;28;20363;-54
2020/12/15 15:39:54;;;;;;;37.40;16.13;;;;;;;1.93;53.29;99476.72;10489925;28;20044;-50
2020/12/15 15:44:56;;;;;;;42.80;17.00;;;;;;;1.94;53.47;99486.19;10499953;28;20048;-51
2020/12/15 15:49:58;;;;;;;34.67;16.80;;;;;;;1.93;53.39;99492.28;10497211;28;20397;-50
2020/12/15 15:55:00;;;;;;;37.35;16.17;;;;;;;2.02;52.87;99482.25;10497612;28;20080;-51
2020/12/15 16:00:02;;;;;;;39.22;17.48;;;;;;;2.05;53.06;99492.47;10498510;28;20106;-50
2020/12/15 16:05:11;;;;;;;40.28;19.27;;;;;;;2.05;52.81;99491.63;10494861;28;20166;-52
2020/12/15 16:10:13;;;;;;;50.97;20.52;;;;;;;2.03;52.79;99493.47;10492680;28;20481;-50
2020/12/15 16:15:14;;;;;;;40.00;21.13;;;;;;;2.03;53.27;99486.56;10492675;28;20049;-51
2020/12/15 16:20:17;;;;;;;40.15;17.45;;;;;;;2.03;53.05;99493.47;10493187;28;20049;-59
2020/12/15 16:25:19;;;;;;;32.47;14.50;;;;;;;2.05;53.13;99492.47;10493795;28;20139;-52
2020/12/15 16:30:20;;;;;;;40.50;15.27;;;;;;;2.00;52.93;99488.44;10493358;28;20048;-51
2020/12/15 16:35:23;;;;;;;32.05;14.73;;;;;;;1.89;53.17;99491.63;10491974;28;20439;-50
2020/12/15 16:40:24;;;;;;;37.35;14.80;;;;;;;1.78;53.31;99499.13;10493390;28;20072;-51
2020/12/15 16:45:26;;;;;;;36.55;14.20;;;;;;;1.89;53.42;99506.34;10499887;28;20052;-50
2020/12/15 16:50:29;;;;;;;35.53;14.63;;;;;;;1.91;53.38;99507.94;10499344;28;20063;-51
2020/12/15 16:55:31;;;;;;;28.30;13.82;;;;;;;1.86;53.05;99511.69;10500574;28;20930;-51
2020/12/15 17:00:33;;;;;;;36.05;14.65;;;;;;;1.84;52.88;99503.97;10504723;28;20170;-51
2020/12/15 17:05:35;;;;;;;33.45;13.68;;;;;;;1.97;53.10;99501.56;10501615;28;20079;-52
2020/12/15 17:10:38;;;;;;;31.77;13.48;;;;;;;2.12;52.90;99503.34;10500261;28;20504;-52
2020/12/15 17:15:40;;;;;;;26.00;12.48;;;;;;;2.13;52.85;99493.84;10500920;28;20044;-50
2020/12/15 17:20:43;;;;;;;29.30;14.88;;;;;;;2.21;52.75;99495.06;10500857;28;20507;-51
2020/12/15 17:25:45;;;;;;;37.45;15.63;;;;;;;2.26;52.19;99495.66;10499985;28;20045;-50
2020/12/15 17:30:47;;;;;;;40.47;14.67;;;;;;;2.32;52.63;99511.81;10498387;28;20052;-50
2020/12/15 17:35:50;;;;;;;36.40;15.00;;;;;;;2.37;52.13;99517.59;10498774;28;20083;-51
2020/12/15 17:40:52;;;;;;;32.28;13.63;;;;;;;2.35;52.57;99519.44;10500441;28;20488;-52
2020/12/15 17:45:53;;;;;;;29.63;13.23;;;;;;;2.34;51.82;99517.75;10498625;28;20040;-51
2020/12/15 17:50:56;;;;;;;31.15;12.25;;;;;;;2.25;52.35;99519.94;10499161;28;20196;-50
2020/12/15 17:55:58;;;;;;;27.95;13.35;;;;;;;2.13;52.63;99524.94;10496775;28;20119;-51
2020/12/15 18:00:59;;;;;;;35.80;14.45;;;;;;;2.14;52.44;99506.72;10498666;28;20076;-51
2020/12/15 18:06:02;;;;;;;35.45;14.32;;;;;;;2.28;52.64;99522.38;10497384;28;20041;-51
2020/12/15 18:11:04;;;;;;;39.17;14.82;;;;;;;2.24;52.61;99528.63;10498820;28;20080;-51
2020/12/15 18:16:05;;;;;;;34.88;14.48;;;;;;;2.27;52.83;99533.66;10496613;28;20056;-50
2020/12/15 18:21:08;;;;;;;30.60;13.93;;;;;;;2.32;52.45;99533.41;10497318;28;20060;-51
2020/12/15 18:26:10;;;;;;;38.05;16.02;;;;;;;2.39;52.12;99536.50;10499176;28;20064;-51
2020/12/15 18:31:12;;;;;;;34.08;14.63;;;;;;;2.40;52.38;99538.16;10496048;28;20151;-52
2020/12/15 18:36:16;;;;;;;35.03;13.53;;;;;;;2.36;52.13;99555.66;10496745;28;20499;-51
2020/12/15 18:41:18;;;;;;;33.70;14.20;;;;;;;2.31;52.46;99557.69;10497763;28;20109;-55
2020/12/15 18:46:19;;;;;;;40.38;16.60;;;;;;;2.35;52.13;99550.56;10495160;28;20378;-51
2020/12/15 18:51:24;;;;;;;31.13;13.05;;;;;;;2.39;52.34;99549.47;10496720;28;20052;-51
2020/12/15 18:56:25;;;;;;;41.80;19.50;;;;;;;2.28;52.48;99561.28;10497217;28;20061;-52
2020/12/15 19:01:28;;;;;;;32.97;13.45;;;;;;;2.13;52.73;99582.84;10496697;28;20048;-52
2020/12/15 19:06:34;;;;;;;43.60;16.50;;;;;;;2.14;52.86;99571.53;10495900;28;20063;-51
2020/12/15 19:11:36;;;;;;;31.00;12.32;;;;;;;2.15;52.51;99574.97;10497629;28;20099;-51
2020/12/15 19:16:38;;;;;;;39.35;15.65;;;;;;;2.17;52.51;99573.13;10496936;28;20052;-52
2020/12/15 19:21:41;;;;;;;28.80;13.60;;;;;;;2.15;52.39;99591.34;10495499;28;20101;-52
2020/12/15 19:26:43;;;;;;;29.52;12.10;;;;;;;2.22;52.80;99591.91;10497050;28;20079;-50
2020/12/15 19:31:48;;;;;;;31.42;13.07;;;;;;;2.18;52.41;99580.81;10495264;28;20041;-50
2020/12/15 19:36:50;;;;;;;24.35;11.82;;;;;;;2.25;52.57;99574.41;10499139;28;20053;-50
2020/12/15 19:41:52;;;;;;;33.78;14.13;;;;;;;2.18;52.38;99565.25;10494997;28;20048;-50
2020/12/15 19:46:54;;;;;;;27.60;13.02;;;;;;;2.33;52.23;99573.16;10495181;28;20202;-55
2020/12/15 19:51:56;;;;;;;31.70;13.63;;;;;;;2.39;51.71;99570.22;10497881;28;20465;-50
2020/12/15 19:57:01;;;;;;;26.02;11.68;;;;;;;2.37;51.95;99580.72;10499022;28;20064;-52
2020/12/15 20:02:04;;;;;;;35.50;13.50;;;;;;;2.41;52.01;99545.06;10498945;28;20056;-55
2020/12/15 20:07:07;;;;;;;29.02;12.52;;;;;;;2.38;52.13;99550.41;10497735;28;20381;-52
2020/12/15 20:12:09;;;;;;;26.35;11.60;;;;;;;2.36;51.92;99547.06;10498840;28;20099;-51
2020/12/15 20:17:11;;;;;;;30.40;12.23;;;;;;;2.27;51.68;99538.00;10499686;28;20094;-51
2020/12/15 20:22:14;;;;;;;36.30;14.82;;;;;;;2.17;52.06;99561.00;10506508;28;20044;-50
2020/12/15 20:27:17;;;;;;;33.55;15.40;;;;;;;2.18;52.08;99596.38;10506695;28;20063;-51
2020/12/15 20:32:18;;;;;;;31.50;14.63;;;;;;;2.18;51.82;99606.75;10505872;28;20082;-59
2020/12/15 20:37:21;;;;;;;31.40;13.50;;;;;;;2.22;51.60;99618.66;10519541;28;20083;-52
2020/12/15 20:42:23;;;;;;;40.03;15.60;;;;;;;2.12;52.37;99617.44;10547119;28;20446;-51
2020/12/15 20:47:25;;;;;;;42.60;16.02;;;;;;;2.10;52.17;99628.84;10545395;28;20048;-51
2020/12/15 20:52:27;;;;;;;33.20;13.10;;;;;;;1.97;52.10;99644.16;10545302;28;20093;-50
2020/12/15 20:57:29;;;;;;;37.47;14.95;;;;;;;1.94;52.35;99642.59;10512424;28;20060;-52
2020/12/15 21:02:31;;;;;;;42.55;15.73;;;;;;;2.00;52.62;99634.50;10503202;28;20044;-50
2020/12/15 21:07:33;;;;;;;43.35;18.90;;;;;;;2.09;52.27;99625.38;10502536;28;20057;-51
2020/12/15 21:12:36;;;;;;;38.17;15.98;;;;;;;2.11;52.54;99618.38;10502957;28;20051;-52
2020/12/15 21:17:39;;;;;;;36.63;14.45;;;;;;;2.12;52.61;99617.44;10502010;28;20045;-51
2020/12/15 21:22:41;;;;;;;37.10;16.30;;;;;;;2.16;51.75;99624.16;10502756;28;20155;-51
2020/12/15 21:27:43;;;;;;;40.78;16.00;;;;;;;1.96;52.78;99634.72;10503003;28;20053;-52
2020/12/15 21:32:45;;;;;;;47.92;19.58;;;;;;;1.99;52.67;99637.16;10508080;28;20051;-52
2020/12/15 21:37:49;;;;;;;35.55;13.63;;;;;;;2.01;52.25;99656.06;10517479;28;20048;-54
2020/12/15 21:42:51;;;;;;;31.23;13.13;;;;;;;2.07;52.48;99660.94;10544099;28;20043;-50
2020/12/15 21:47:54;;;;;;;33.08;12.35;;;;;;;2.13;52.50;99667.59;10543748;28;20185;-51
2020/12/15 21:52:56;;;;;;;33.55;14.20;;;;;;;2.14;52.28;99669.25;10543033;28;20449;-51
2020/12/15 21:57:58;;;;;;;35.78;12.40;;;;;;;2.12;52.20;99668.47;10506072;28;20163;-51
2020/12/15 22:03:00;;;;;;;36.00;13.73;;;;;;;2.19;51.93;99670.69;10502352;28;20115;-51
2020/12/15 22:08:03;;;;;;;35.25;13.40;;;;;;;2.27;52.24;99665.94;10499999;28;20127;-50
2020/12/15 22:13:04;;;;;;;35.28;14.45;;;;;;;2.21;52.49;99653.28;10502018;28;20044;-51
2020/12/15 22:18:06;;;;;;;31.40;13.07;;;;;;;2.29;52.28;99661.50;10502040;28;20083;-52
2020/12/15 22:23:08;;;;;;;35.08;15.07;;;;;;;2.38;51.66;99672.34;10500509;28;20041;-52
2020/12/15 22:28:10;;;;;;;38.97;13.55;;;;;;;2.32;51.63;99665.72;10499614;28;20489;-53
2020/12/15 22:33:12;;;;;;;35.00;14.75;;;;;;;2.30;52.10;99655.41;10504920;28;20100;-51
2020/12/15 22:38:14;;;;;;;32.90;13.23;;;;;;;2.39;51.50;99655.84;10522344;28;20052;-52
2020/12/15 22:43:16;;;;;;;30.33;13.20;;;;;;;2.49;51.78;99652.69;10498590;28;20473;-51
2020/12/15 22:48:18;;;;;;;27.40;13.23;;;;;;;2.54;51.74;99644.66;10499462;28;20053;-51
2020/12/15 22:53:20;;;;;;;34.20;13.18;;;;;;;2.55;51.32;99648.91;10499103;28;20040;-51
2020/12/15 22:58:22;;;;;;;43.45;14.27;;;;;;;2.52;51.50;99644.75;10500374;28;20052;-52
2020/12/15 23:03:23;;;;;;;32.28;13.52;;;;;;;2.52;51.62;99655.13;10501864;28;20047;-51
2020/12/15 23:08:26;;;;;;;31.10;14.55;;;;;;;2.56;51.38;99658.41;10501145;28;20362;-57
2020/12/15 23:13:28;;;;;;;35.00;14.13;;;;;;;2.56;51.66;99648.03;10500001;28;20040;-52
2020/12/15 23:18:30;;;;;;;32.60;13.95;;;;;;;2.57;51.61;99657.47;10498678;28;20397;-51